Kennett, MO (63857)

12:12 AM CDT on July 31, 2014 (GMT -0500)
Kennett E911 (KMOKENNE2) Elev 262 ft | 36.24 °N, 90.06 °W | Change Station

Current weather conditions updated 19 seconds ago

Overcast
Overcast
72.4 °F
Feels Like 72 °F
N
0.0
Wind Variable Wind from WNW
Gusts 3.0 mph

Today is forecast to be nearly the same temperature as yesterday.

Today
High -- | Low -- °F
--% Chance of Precip.
Yesterday
High -- | Low -- °F
Precip. -- in
6:06 AM 8:06 PM
Waxing Crescent, 16% visible
Pressure 30.06 in
Visibility 10.0 miles
Clouds Overcast 6000 ft
Heat Index 72 °F
Dew Point 66 °F
Humidity 82%
Rainfall 0.00 in
Snow Depth Not available.
UV 0 out of 12
Pollen 6.70 out of 12
Air Quality Not available.
Flu Activity Not available.
METAR KHKA 310453Z AUTO 00000KT 10SM OVC060 22/19 A3007 RMK AO2 SLP180 T02170194 $

More Conditions Fewer Conditions

Pressure 30.06 in
Visibility 10.0 miles
Clouds Overcast 6000 ft
Heat Index 72 °F
Dew Point 66 °F
Humidity 82%
Rainfall 0.00 in
Snow Depth Not available.
UV 0 out of 12
Pollen 6.70 out of 12
Air Quality Not available.
Flu Activity Not available.
METAR KHKA 310453Z AUTO 00000KT 10SM OVC060 22/19 A3007 RMK AO2 SLP180 T02170194 $

More Conditions Fewer Conditions

10-Day Weather Forecast

Almanac

Astronomy

Jul. 31, 2014 Rise Set
Actual Time 6:06 AM CDT 8:06 PM CDT
Civil Twilight 5:37 AM CDT 8:34 PM CDT
Nautical Twilight 5:03 AM CDT 9:09 PM CDT
Astronomical Twilight 4:25 AM CDT 9:46 PM CDT
Moon 10:24 AM CDT 10:29 PM CDT
Length of Visible Light 14h 56m
Length of Day
14h 00m
Tomorrow will be 1m 42s shorter.
Waxing Crescent, 16% of the Moon is Illuminated
Today
Waxing Crescent
Aug 3
First Quarter
Aug 10
Full
Aug 17
Last Quarter
Aug 25
New

Today's Extremes

State Highs State Lows

Community

WunderPhotos

Upload Photos

1,739,246 photos uploaded!

Nearby

Snow Depth

Station Depth Elevation
No new snow has been reported.

Earthquake Activity

City Distance Mag. Time & Date
No recent earthquake activity has been reported nearby.
Minimum magnitude displayed is 2.5.

Coastal Water Temperatures

Place Temperature
No Stations Reporting

Nearby Weather Stations

Station Location Temp. Heat Index Dew Point Humidity Wind Precip. Elev Updated Type
Kennett E911, Kennett, MO 72.4 °F 72 °F 66 °F 82% WNW  at  0.0 mph 0.00 in / hr 262 ft 12:11 AM CDT Rapid Fire
KC0UFP WX, Kennett, MO 70.2 °F - 66 °F 85% West  at  0.0 mph - / hr 262 ft 12:02 AM CDT Normal
Peach Orchard, Gideon, MO 70.7 °F - 66 °F 84% SW  at  0.0 mph 0.00 in / hr 263 ft 12:11 AM CDT Rapid Fire
MesoWest GRNWAY , Rector, AR 71 °F - - - North  at  - 0.00 in / hr 293 ft 10:35 PM CDT MADIS
MesoWest PIGGOT , Piggott, AR 75 °F 73 °F - - North  at  - 0.00 in / hr 287 ft 11:00 PM CDT MADIS
MesoWest MALDEN , Campbell, MO 76 °F 74 °F - - North  at  - 0.00 in / hr 288 ft 10:45 PM CDT MADIS
MesoWest MARDUK , Marmaduke, AR 72 °F - - - North  at  - 0.00 in / hr 272 ft 10:45 PM CDT MADIS

Show More Stations Show Fewer Stations